sensor_id;sensor_type;location;lat;lon;timestamp;pressure;altitude;pressure_sealevel;temperature;humidity
18918;BME280;9591;52.742;13.650;2023-09-19T00:00:56;100027.63;;;24.82;79.03
18918;BME280;9591;52.742;13.650;2023-09-19T00:03:44;100028.84;;;25.06;77.44
18918;BME280;9591;52.742;13.650;2023-09-19T00:06:31;100030.94;;;24.94;78.07
18918;BME280;9591;52.742;13.650;2023-09-19T00:09:18;100031.56;;;24.88;78.00
18918;BME280;9591;52.742;13.650;2023-09-19T00:12:06;100034.50;;;24.95;77.58
18918;BME280;9591;52.742;13.650;2023-09-19T00:14:54;100038.91;;;24.96;77.56
18918;BME280;9591;52.742;13.650;2023-09-19T00:17:42;100032.09;;;24.92;77.88
18918;BME280;9591;52.742;13.650;2023-09-19T00:20:30;100035.53;;;24.76;78.23
18918;BME280;9591;52.742;13.650;2023-09-19T00:23:17;100036.59;;;24.83;78.43
18918;BME280;9591;52.742;13.650;2023-09-19T00:26:05;100031.34;;;24.81;78.23
18918;BME280;9591;52.742;13.650;2023-09-19T00:28:52;100028.97;;;24.61;78.93
18918;BME280;9591;52.742;13.650;2023-09-19T00:31:39;100027.03;;;24.53;79.24
18918;BME280;9591;52.742;13.650;2023-09-19T00:34:26;100023.09;;;24.47;79.46
18918;BME280;9591;52.742;13.650;2023-09-19T00:37:14;100030.75;;;24.52;79.31
18918;BME280;9591;52.742;13.650;2023-09-19T00:40:03;100028.03;;;24.34;79.60
18918;BME280;9591;52.742;13.650;2023-09-19T00:42:51;100023.41;;;24.27;79.91
18918;BME280;9591;52.742;13.650;2023-09-19T00:45:39;100023.41;;;24.27;80.29
18918;BME280;9591;52.742;13.650;2023-09-19T00:48:28;100024.00;;;24.56;78.54
18918;BME280;9591;52.742;13.650;2023-09-19T00:51:15;100016.47;;;26.87;67.79
18918;BME280;9591;52.742;13.650;2023-09-19T00:54:06;100009.34;;;31.75;49.74
18918;BME280;9591;52.742;13.650;2023-09-19T00:56:54;100010.84;;;33.11;44.34
18918;BME280;9591;52.742;13.650;2023-09-19T00:59:41;100005.34;;;33.31;42.89
18918;BME280;9591;52.742;13.650;2023-09-19T01:02:28;100011.00;;;34.07;40.91
18918;BME280;9591;52.742;13.650;2023-09-19T01:05:18;100014.25;;;34.29;39.93
18918;BME280;9591;52.742;13.650;2023-09-19T01:08:05;100013.88;;;33.74;41.02
18918;BME280;9591;52.742;13.650;2023-09-19T01:11:06;100025.19;;;33.39;41.74
18918;BME280;9591;52.742;13.650;2023-09-19T01:13:58;100025.63;;;33.03;42.67
18918;BME280;9591;52.742;13.650;2023-09-19T01:16:54;100020.31;;;31.81;45.45
18918;BME280;9591;52.742;13.650;2023-09-19T01:20:03;100022.78;;;31.70;45.34
18918;BME280;9591;52.742;13.650;2023-09-19T01:23:00;100019.56;;;32.01;44.76
18918;BME280;9591;52.742;13.650;2023-09-19T01:26:13;100015.88;;;31.74;45.55
18918;BME280;9591;52.742;13.650;2023-09-19T01:29:17;100017.53;;;31.40;46.33
18918;BME280;9591;52.742;13.650;2023-09-19T01:32:17;100015.22;;;31.37;46.22
18918;BME280;9591;52.742;13.650;2023-09-19T01:35:07;100020.00;;;32.17;43.90
18918;BME280;9591;52.742;13.650;2023-09-19T01:37:58;100031.78;;;31.01;47.07
18918;BME280;9591;52.742;13.650;2023-09-19T01:40:51;100030.63;;;30.89;47.60
18918;BME280;9591;52.742;13.650;2023-09-19T01:43:45;100023.50;;;31.50;45.88
18918;BME280;9591;52.742;13.650;2023-09-19T01:46:38;100028.59;;;31.60;45.29
18918;BME280;9591;52.742;13.650;2023-09-19T01:49:33;100025.81;;;30.48;48.74
18918;BME280;9591;52.742;13.650;2023-09-19T01:52:28;100019.81;;;30.38;49.07
18918;BME280;9591;52.742;13.650;2023-09-19T01:55:17;100034.09;;;29.83;50.89
18918;BME280;9591;52.742;13.650;2023-09-19T01:58:07;100038.06;;;30.31;49.72
18918;BME280;9591;52.742;13.650;2023-09-19T02:00:56;100039.91;;;30.09;49.89
18918;BME280;9591;52.742;13.650;2023-09-19T02:03:45;100036.75;;;30.27;49.39
18918;BME280;9591;52.742;13.650;2023-09-19T02:06:34;100031.03;;;30.64;48.31
18918;BME280;9591;52.742;13.650;2023-09-19T02:09:21;100031.63;;;30.60;48.66
18918;BME280;9591;52.742;13.650;2023-09-19T02:12:09;100033.41;;;31.92;44.74
18918;BME280;9591;52.742;13.650;2023-09-19T02:14:56;100031.19;;;30.42;47.95
18918;BME280;9591;52.742;13.650;2023-09-19T02:17:44;100026.44;;;30.08;49.34
18918;BME280;9591;52.742;13.650;2023-09-19T02:20:31;100033.47;;;30.17;48.91
18918;BME280;9591;52.742;13.650;2023-09-19T02:23:20;100034.41;;;30.24;49.33
18918;BME280;9591;52.742;13.650;2023-09-19T02:26:07;100042.25;;;29.97;50.01
18918;BME280;9591;52.742;13.650;2023-09-19T02:28:54;100040.63;;;30.39;48.83
18918;BME280;9591;52.742;13.650;2023-09-19T02:31:41;100021.53;;;30.60;47.87
18918;BME280;9591;52.742;13.650;2023-09-19T02:34:29;100053.06;;;30.42;48.13
18918;BME280;9591;52.742;13.650;2023-09-19T02:37:15;100047.06;;;30.10;49.23
18918;BME280;9591;52.742;13.650;2023-09-19T02:40:07;100044.94;;;30.48;48.34
18918;BME280;9591;52.742;13.650;2023-09-19T02:43:05;100053.16;;;30.12;48.53
18918;BME280;9591;52.742;13.650;2023-09-19T02:45:54;100053.81;;;30.36;48.16
18918;BME280;9591;52.742;13.650;2023-09-19T02:48:42;100059.13;;;29.72;50.19
18918;BME280;9591;52.742;13.650;2023-09-19T02:51:29;100059.41;;;30.06;49.43
18918;BME280;9591;52.742;13.650;2023-09-19T02:54:16;100059.06;;;30.30;48.00
18918;BME280;9591;52.742;13.650;2023-09-19T02:57:05;100072.94;;;29.99;49.35
18918;BME280;9591;52.742;13.650;2023-09-19T02:59:53;100076.13;;;28.92;52.72
18918;BME280;9591;52.742;13.650;2023-09-19T03:02:40;100074.47;;;29.06;51.75
18918;BME280;9591;52.742;13.650;2023-09-19T03:05:28;100076.03;;;28.77;53.29
18918;BME280;9591;52.742;13.650;2023-09-19T03:08:17;100073.84;;;29.18;51.92
18918;BME280;9591;52.742;13.650;2023-09-19T03:11:06;100070.78;;;29.80;49.99
18918;BME280;9591;52.742;13.650;2023-09-19T03:14:09;100080.53;;;29.30;51.22
18918;BME280;9591;52.742;13.650;2023-09-19T03:16:58;100081.50;;;29.00;52.65
18918;BME280;9591;52.742;13.650;2023-09-19T03:19:45;100086.13;;;29.52;50.63
18918;BME280;9591;52.742;13.650;2023-09-19T03:22:37;100085.06;;;30.26;48.88
18918;BME280;9591;52.742;13.650;2023-09-19T03:25:24;100081.84;;;30.23;48.29
18918;BME280;9591;52.742;13.650;2023-09-19T03:28:11;100077.16;;;30.74;46.15
18918;BME280;9591;52.742;13.650;2023-09-19T03:31:00;100081.06;;;31.36;44.28
18918;BME280;9591;52.742;13.650;2023-09-19T03:33:49;100083.16;;;31.34;44.92
18918;BME280;9591;52.742;13.650;2023-09-19T03:36:36;100088.88;;;30.89;46.37
18918;BME280;9591;52.742;13.650;2023-09-19T03:39:23;100089.75;;;31.46;45.29
18918;BME280;9591;52.742;13.650;2023-09-19T03:42:10;100084.81;;;31.62;43.31
18918;BME280;9591;52.742;13.650;2023-09-19T03:44:57;100096.38;;;29.94;45.59
18918;BME280;9591;52.742;13.650;2023-09-19T03:47:47;100105.75;;;26.41;60.96
18918;BME280;9591;52.742;13.650;2023-09-19T03:50:36;100107.16;;;25.25;67.16
18918;BME280;9591;52.742;13.650;2023-09-19T03:53:25;100112.72;;;24.62;71.21
18918;BME280;9591;52.742;13.650;2023-09-19T03:56:12;100108.66;;;27.37;60.82
18918;BME280;9591;52.742;13.650;2023-09-19T03:58:59;100129.06;;;26.84;60.09
18918;BME280;9591;52.742;13.650;2023-09-19T04:01:46;100110.41;;;25.55;66.84
18918;BME280;9591;52.742;13.650;2023-09-19T04:04:35;100118.13;;;25.93;63.62
18918;BME280;9591;52.742;13.650;2023-09-19T04:07:22;100118.34;;;24.51;71.90
18918;BME280;9591;52.742;13.650;2023-09-19T04:10:09;100121.94;;;24.69;71.36
18918;BME280;9591;52.742;13.650;2023-09-19T04:12:57;100112.56;;;24.64;71.27
18918;BME280;9591;52.742;13.650;2023-09-19T04:15:44;100124.41;;;24.80;70.47
18918;BME280;9591;52.742;13.650;2023-09-19T04:18:32;100117.16;;;24.99;69.71
18918;BME280;9591;52.742;13.650;2023-09-19T04:21:25;100126.88;;;27.12;61.73
18918;BME280;9591;52.742;13.650;2023-09-19T04:24:12;100133.03;;;25.20;68.30
18918;BME280;9591;52.742;13.650;2023-09-19T04:27:00;100125.19;;;27.91;57.46
18918;BME280;9591;52.742;13.650;2023-09-19T04:29:47;100135.44;;;25.23;66.39
18918;BME280;9591;52.742;13.650;2023-09-19T04:32:36;100126.78;;;25.19;66.64
18918;BME280;9591;52.742;13.650;2023-09-19T04:35:24;100131.47;;;25.87;64.04
18918;BME280;9591;52.742;13.650;2023-09-19T04:38:13;100136.63;;;26.06;62.83
18918;BME280;9591;52.742;13.650;2023-09-19T04:41:01;100142.53;;;26.01;60.91
18918;BME280;9591;52.742;13.650;2023-09-19T04:43:48;100150.59;;;26.69;58.59
18918;BME280;9591;52.742;13.650;2023-09-19T04:46:36;100145.41;;;27.96;55.35
18918;BME280;9591;52.742;13.650;2023-09-19T04:49:23;100150.81;;;27.41;54.77
18918;BME280;9591;52.742;13.650;2023-09-19T04:52:11;100155.38;;;27.49;55.11
18918;BME280;9591;52.742;13.650;2023-09-19T04:55:04;100164.38;;;27.49;54.28
18918;BME280;9591;52.742;13.650;2023-09-19T04:57:53;100155.88;;;26.29;56.95
18918;BME280;9591;52.742;13.650;2023-09-19T05:00:41;100158.56;;;26.71;56.01
18918;BME280;9591;52.742;13.650;2023-09-19T05:03:29;100165.59;;;27.30;53.85
18918;BME280;9591;52.742;13.650;2023-09-19T05:06:16;100158.44;;;27.46;53.40
18918;BME280;9591;52.742;13.650;2023-09-19T05:09:03;100159.34;;;29.92;45.98
18918;BME280;9591;52.742;13.650;2023-09-19T05:11:52;100162.03;;;30.37;43.76
18918;BME280;9591;52.742;13.650;2023-09-19T05:14:39;100177.97;;;27.57;51.00
18918;BME280;9591;52.742;13.650;2023-09-19T05:17:27;100179.22;;;28.57;47.35
18918;BME280;9591;52.742;13.650;2023-09-19T05:20:14;100182.56;;;27.49;52.03
18918;BME280;9591;52.742;13.650;2023-09-19T05:23:10;100183.59;;;27.15;53.31
18918;BME280;9591;52.742;13.650;2023-09-19T05:25:58;100190.06;;;27.30;51.96
18918;BME280;9591;52.742;13.650;2023-09-19T05:28:46;100189.88;;;27.07;52.66
18918;BME280;9591;52.742;13.650;2023-09-19T05:31:34;100186.81;;;27.51;51.31
18918;BME280;9591;52.742;13.650;2023-09-19T05:34:22;100191.41;;;27.51;50.70
18918;BME280;9591;52.742;13.650;2023-09-19T05:37:11;100203.13;;;27.35;51.02
18918;BME280;9591;52.742;13.650;2023-09-19T05:39:57;100191.06;;;30.88;41.92
18918;BME280;9591;52.742;13.650;2023-09-19T05:42:44;100206.41;;;31.53;40.04
18918;BME280;9591;52.742;13.650;2023-09-19T05:45:33;100203.75;;;31.39;40.25
18918;BME280;9591;52.742;13.650;2023-09-19T05:48:21;100209.06;;;30.32;40.55
18918;BME280;9591;52.742;13.650;2023-09-19T05:51:08;100218.59;;;32.00;37.68
18918;BME280;9591;52.742;13.650;2023-09-19T05:53:55;100220.44;;;31.93;38.42
18918;BME280;9591;52.742;13.650;2023-09-19T05:56:43;100224.44;;;32.25;37.25
18918;BME280;9591;52.742;13.650;2023-09-19T05:59:32;100237.72;;;32.69;36.50
18918;BME280;9591;52.742;13.650;2023-09-19T06:02:21;100236.75;;;32.83;35.47
18918;BME280;9591;52.742;13.650;2023-09-19T06:05:08;100249.13;;;33.40;34.76
18918;BME280;9591;52.742;13.650;2023-09-19T06:07:56;100255.25;;;33.88;33.86
18918;BME280;9591;52.742;13.650;2023-09-19T06:10:46;100255.13;;;34.61;32.75
18918;BME280;9591;52.742;13.650;2023-09-19T06:13:34;100258.81;;;34.35;32.59
18918;BME280;9591;52.742;13.650;2023-09-19T06:16:21;100274.47;;;34.02;32.95
18918;BME280;9591;52.742;13.650;2023-09-19T06:19:10;100277.38;;;31.76;37.39
18918;BME280;9591;52.742;13.650;2023-09-19T06:21:57;100284.69;;;32.25;36.37
18918;BME280;9591;52.742;13.650;2023-09-19T06:24:45;100294.56;;;31.91;37.63
18918;BME280;9591;52.742;13.650;2023-09-19T06:27:32;100294.03;;;32.09;37.19
18918;BME280;9591;52.742;13.650;2023-09-19T06:30:23;100296.38;;;32.40;36.84
18918;BME280;9591;52.742;13.650;2023-09-19T06:33:11;100289.00;;;32.41;37.07
18918;BME280;9591;52.742;13.650;2023-09-19T06:36:04;100289.22;;;32.39;36.53
18918;BME280;9591;52.742;13.650;2023-09-19T06:38:51;100294.72;;;32.80;36.22
18918;BME280;9591;52.742;13.650;2023-09-19T06:41:39;100289.91;;;32.48;36.62
18918;BME280;9591;52.742;13.650;2023-09-19T06:44:28;100298.69;;;35.15;31.88
18918;BME280;9591;52.742;13.650;2023-09-19T06:47:17;100298.41;;;33.07;35.32
18918;BME280;9591;52.742;13.650;2023-09-19T06:50:05;100297.22;;;33.30;35.11
18918;BME280;9591;52.742;13.650;2023-09-19T06:53:00;100296.44;;;32.88;36.33
18918;BME280;9591;52.742;13.650;2023-09-19T06:55:48;100301.28;;;32.86;35.75
18918;BME280;9591;52.742;13.650;2023-09-19T06:58:35;100300.47;;;33.93;34.36
18918;BME280;9591;52.742;13.650;2023-09-19T07:01:22;100307.22;;;34.03;33.04
18918;BME280;9591;52.742;13.650;2023-09-19T07:04:09;100301.72;;;33.70;33.91
18918;BME280;9591;52.742;13.650;2023-09-19T07:06:56;100297.09;;;34.10;33.78
18918;BME280;9591;52.742;13.650;2023-09-19T07:09:44;100311.66;;;34.17;33.25
18918;BME280;9591;52.742;13.650;2023-09-19T07:12:34;100313.50;;;34.63;33.18
18918;BME280;9591;52.742;13.650;2023-09-19T07:15:21;100309.97;;;34.36;33.17
18918;BME280;9591;52.742;13.650;2023-09-19T07:18:12;100310.78;;;33.58;33.96
18918;BME280;9591;52.742;13.650;2023-09-19T07:21:00;100311.19;;;34.54;32.95
18918;BME280;9591;52.742;13.650;2023-09-19T07:23:50;100309.13;;;34.42;32.81
18918;BME280;9591;52.742;13.650;2023-09-19T07:26:39;100324.66;;;34.68;32.65
18918;BME280;9591;52.742;13.650;2023-09-19T07:29:26;100328.47;;;34.74;32.18
18918;BME280;9591;52.742;13.650;2023-09-19T07:32:13;100328.44;;;35.38;30.81
18918;BME280;9591;52.742;13.650;2023-09-19T07:35:03;100339.53;;;35.19;31.51
18918;BME280;9591;52.742;13.650;2023-09-19T07:37:50;100337.69;;;35.06;30.99
18918;BME280;9591;52.742;13.650;2023-09-19T07:40:38;100337.25;;;34.38;32.05
18918;BME280;9591;52.742;13.650;2023-09-19T07:43:26;100344.00;;;34.48;31.66
18918;BME280;9591;52.742;13.650;2023-09-19T07:46:13;100353.50;;;35.55;30.77
18918;BME280;9591;52.742;13.650;2023-09-19T07:49:00;100363.88;;;35.15;30.31
18918;BME280;9591;52.742;13.650;2023-09-19T07:51:47;100359.84;;;34.27;31.87
18918;BME280;9591;52.742;13.650;2023-09-19T07:54:34;100369.03;;;35.50;29.83
18918;BME280;9591;52.742;13.650;2023-09-19T07:57:22;100378.22;;;33.86;32.84
18918;BME280;9591;52.742;13.650;2023-09-19T08:00:11;100376.22;;;32.93;32.02
18918;BME280;9591;52.742;13.650;2023-09-19T08:02:58;100382.50;;;32.31;33.99
18918;BME280;9591;52.742;13.650;2023-09-19T08:05:52;100372.59;;;35.05;29.71
18918;BME280;9591;52.742;13.650;2023-09-19T08:08:40;100380.50;;;37.14;27.42
18918;BME280;9591;52.742;13.650;2023-09-19T08:11:27;100381.66;;;35.57;29.48
18918;BME280;9591;52.742;13.650;2023-09-19T08:14:16;100374.44;;;35.63;29.30
18918;BME280;9591;52.742;13.650;2023-09-19T08:17:05;100365.91;;;35.71;28.25
18918;BME280;9591;52.742;13.650;2023-09-19T08:19:52;100378.00;;;35.38;29.37
18918;BME280;9591;52.742;13.650;2023-09-19T08:22:39;100375.69;;;35.35;28.90
18918;BME280;9591;52.742;13.650;2023-09-19T08:25:26;100381.69;;;35.12;28.92
18918;BME280;9591;52.742;13.650;2023-09-19T08:28:14;100383.94;;;35.35;27.95
18918;BME280;9591;52.742;13.650;2023-09-19T08:31:05;100379.50;;;35.34;28.29
18918;BME280;9591;52.742;13.650;2023-09-19T08:33:53;100383.84;;;35.87;27.76
18918;BME280;9591;52.742;13.650;2023-09-19T08:36:41;100383.72;;;34.66;28.20
18918;BME280;9591;52.742;13.650;2023-09-19T08:39:30;100389.63;;;34.23;29.39
18918;BME280;9591;52.742;13.650;2023-09-19T08:42:19;100385.78;;;34.70;28.48
18918;BME280;9591;52.742;13.650;2023-09-19T08:45:07;100395.28;;;35.52;27.67
18918;BME280;9591;52.742;13.650;2023-09-19T08:48:00;100385.88;;;35.22;28.03
18918;BME280;9591;52.742;13.650;2023-09-19T08:50:57;100392.47;;;35.59;27.14
18918;BME280;9591;52.742;13.650;2023-09-19T08:53:50;100396.78;;;35.86;26.35
18918;BME280;9591;52.742;13.650;2023-09-19T08:56:39;100398.19;;;36.27;26.40
18918;BME280;9591;52.742;13.650;2023-09-19T08:59:29;100385.47;;;35.56;27.04
18918;BME280;9591;52.742;13.650;2023-09-19T09:02:18;100401.75;;;36.77;26.33
18918;BME280;9591;52.742;13.650;2023-09-19T09:05:07;100407.38;;;34.14;28.80
18918;BME280;9591;52.742;13.650;2023-09-19T09:07:58;100409.97;;;34.48;28.14
18918;BME280;9591;52.742;13.650;2023-09-19T09:10:45;100409.44;;;35.04;27.73
18918;BME280;9591;52.742;13.650;2023-09-19T09:13:34;100414.59;;;34.28;28.63
18918;BME280;9591;52.742;13.650;2023-09-19T09:16:37;100420.84;;;35.59;26.96
18918;BME280;9591;52.742;13.650;2023-09-19T09:19:35;100418.91;;;35.66;27.78
18918;BME280;9591;52.742;13.650;2023-09-19T09:22:28;100432.53;;;36.24;26.23
18918;BME280;9591;52.742;13.650;2023-09-19T09:25:49;100432.00;;;35.26;26.85
18918;BME280;9591;52.742;13.650;2023-09-19T09:28:45;100431.69;;;35.92;26.69
18918;BME280;9591;52.742;13.650;2023-09-19T09:31:33;100434.25;;;35.49;26.72
18918;BME280;9591;52.742;13.650;2023-09-19T09:34:20;100421.28;;;35.56;26.37
18918;BME280;9591;52.742;13.650;2023-09-19T09:37:13;100429.31;;;36.52;25.63
18918;BME280;9591;52.742;13.650;2023-09-19T09:40:03;100427.44;;;36.96;25.54
18918;BME280;9591;52.742;13.650;2023-09-19T09:43:25;100428.06;;;37.64;25.44
18918;BME280;9591;52.742;13.650;2023-09-19T09:46:14;100434.19;;;37.18;24.97
18918;BME280;9591;52.742;13.650;2023-09-19T09:49:22;100430.28;;;37.26;25.22
18918;BME280;9591;52.742;13.650;2023-09-19T09:52:12;100432.59;;;36.42;26.23
18918;BME280;9591;52.742;13.650;2023-09-19T09:55:10;100435.81;;;37.26;25.39
18918;BME280;9591;52.742;13.650;2023-09-19T09:58:17;100431.44;;;37.96;24.20
18918;BME280;9591;52.742;13.650;2023-09-19T10:01:05;100441.22;;;36.71;24.60
18918;BME280;9591;52.742;13.650;2023-09-19T10:03:57;100431.66;;;36.73;24.60
18918;BME280;9591;52.742;13.650;2023-09-19T10:06:46;100443.41;;;37.60;23.49
18918;BME280;9591;52.742;13.650;2023-09-19T10:09:44;100435.13;;;34.45;26.47
18918;BME280;9591;52.742;13.650;2023-09-19T10:12:32;100438.19;;;36.04;24.90
18918;BME280;9591;52.742;13.650;2023-09-19T10:15:26;100444.66;;;36.91;23.65
18918;BME280;9591;52.742;13.650;2023-09-19T10:18:16;100447.06;;;37.06;23.79
18918;BME280;9591;52.742;13.650;2023-09-19T10:21:07;100444.00;;;36.21;24.55
18918;BME280;9591;52.742;13.650;2023-09-19T10:23:58;100429.81;;;36.67;24.13
18918;BME280;9591;52.742;13.650;2023-09-19T10:26:45;100434.50;;;36.42;24.78
18918;BME280;9591;52.742;13.650;2023-09-19T10:29:39;100442.13;;;37.45;23.74
18918;BME280;9591;52.742;13.650;2023-09-19T10:32:28;100427.97;;;38.01;22.84
18918;BME280;9591;52.742;13.650;2023-09-19T10:35:20;100430.16;;;36.78;23.67
18918;BME280;9591;52.742;13.650;2023-09-19T10:38:10;100435.72;;;36.71;23.19
18918;BME280;9591;52.742;13.650;2023-09-19T10:40:58;100435.56;;;37.09;22.56
18918;BME280;9591;52.742;13.650;2023-09-19T10:43:48;100429.84;;;37.59;21.02
18918;BME280;9591;52.742;13.650;2023-09-19T10:46:39;100418.81;;;38.89;21.03
18918;BME280;9591;52.742;13.650;2023-09-19T10:49:28;100432.97;;;39.16;21.42
18918;BME280;9591;52.742;13.650;2023-09-19T10:52:21;100440.16;;;38.23;20.56
18918;BME280;9591;52.742;13.650;2023-09-19T10:55:10;100431.63;;;38.25;22.87
18918;BME280;9591;52.742;13.650;2023-09-19T10:58:05;100441.78;;;39.13;21.33
18918;BME280;9591;52.742;13.650;2023-09-19T11:01:00;100435.34;;;39.47;21.38
18918;BME280;9591;52.742;13.650;2023-09-19T11:04:21;100432.84;;;39.91;19.80
18918;BME280;9591;52.742;13.650;2023-09-19T11:07:11;100445.25;;;39.72;20.63
18918;BME280;9591;52.742;13.650;2023-09-19T11:10:00;100437.72;;;39.55;20.31
18918;BME280;9591;52.742;13.650;2023-09-19T11:12:49;100439.25;;;40.75;19.14
18918;BME280;9591;52.742;13.650;2023-09-19T11:19:00;100440.88;;;39.47;20.11
18918;BME280;9591;52.742;13.650;2023-09-19T11:21:53;100437.91;;;38.44;21.05
18918;BME280;9591;52.742;13.650;2023-09-19T11:24:43;100447.41;;;38.36;20.93
18918;BME280;9591;52.742;13.650;2023-09-19T11:27:31;100451.47;;;37.80;21.20
18918;BME280;9591;52.742;13.650;2023-09-19T11:30:26;100441.09;;;37.76;21.35
18918;BME280;9591;52.742;13.650;2023-09-19T11:33:16;100454.94;;;37.39;21.07
18918;BME280;9591;52.742;13.650;2023-09-19T11:36:07;100432.50;;;39.19;20.21
18918;BME280;9591;52.742;13.650;2023-09-19T11:38:59;100443.63;;;40.04;19.00
18918;BME280;9591;52.742;13.650;2023-09-19T11:41:56;100441.13;;;40.19;19.92
18918;BME280;9591;52.742;13.650;2023-09-19T11:44:43;100440.25;;;38.70;19.85
18918;BME280;9591;52.742;13.650;2023-09-19T11:47:30;100442.47;;;40.17;19.87
18918;BME280;9591;52.742;13.650;2023-09-19T11:50:20;100444.31;;;38.56;20.92
18918;BME280;9591;52.742;13.650;2023-09-19T11:53:10;100441.69;;;38.73;20.08
18918;BME280;9591;52.742;13.650;2023-09-19T11:55:58;100443.78;;;39.29;20.37
18918;BME280;9591;52.742;13.650;2023-09-19T11:58:49;100447.50;;;40.03;19.76
18918;BME280;9591;52.742;13.650;2023-09-19T12:01:50;100452.00;;;39.00;19.31
18918;BME280;9591;52.742;13.650;2023-09-19T12:04:41;100447.16;;;37.66;21.93
18918;BME280;9591;52.742;13.650;2023-09-19T12:07:29;100455.72;;;39.98;20.67
18918;BME280;9591;52.742;13.650;2023-09-19T12:10:16;100455.44;;;39.54;19.41
18918;BME280;9591;52.742;13.650;2023-09-19T12:13:07;100461.72;;;37.91;20.75
18918;BME280;9591;52.742;13.650;2023-09-19T12:15:57;100457.16;;;39.32;20.27
18918;BME280;9591;52.742;13.650;2023-09-19T12:18:46;100459.03;;;39.55;21.02
18918;BME280;9591;52.742;13.650;2023-09-19T12:21:33;100461.72;;;39.78;21.09
18918;BME280;9591;52.742;13.650;2023-09-19T12:24:22;100438.00;;;38.25;19.83
18918;BME280;9591;52.742;13.650;2023-09-19T12:27:12;100465.75;;;39.87;18.86
18918;BME280;9591;52.742;13.650;2023-09-19T12:29:59;100457.25;;;38.32;20.32
18918;BME280;9591;52.742;13.650;2023-09-19T12:33:04;100457.94;;;37.19;19.91
18918;BME280;9591;52.742;13.650;2023-09-19T12:35:51;100434.41;;;35.99;21.79
18918;BME280;9591;52.742;13.650;2023-09-19T12:38:47;100463.69;;;38.91;20.58
18918;BME280;9591;52.742;13.650;2023-09-19T12:41:37;100467.84;;;39.40;20.11
18918;BME280;9591;52.742;13.650;2023-09-19T12:44:25;100467.28;;;39.15;19.35
18918;BME280;9591;52.742;13.650;2023-09-19T12:47:13;100465.97;;;38.59;20.07
18918;BME280;9591;52.742;13.650;2023-09-19T12:50:15;100462.56;;;38.45;19.85
18918;BME280;9591;52.742;13.650;2023-09-19T12:53:04;100462.09;;;40.60;18.30
18918;BME280;9591;52.742;13.650;2023-09-19T12:55:58;100474.13;;;39.00;19.30
18918;BME280;9591;52.742;13.650;2023-09-19T12:58:50;100468.16;;;39.95;18.42
18918;BME280;9591;52.742;13.650;2023-09-19T13:01:41;100473.16;;;39.82;18.37
18918;BME280;9591;52.742;13.650;2023-09-19T13:04:32;100463.81;;;38.61;18.68
18918;BME280;9591;52.742;13.650;2023-09-19T13:07:42;100466.88;;;38.29;19.38
18918;BME280;9591;52.742;13.650;2023-09-19T13:10:31;100451.31;;;38.70;19.09
18918;BME280;9591;52.742;13.650;2023-09-19T13:13:23;100460.09;;;38.79;19.63
18918;BME280;9591;52.742;13.650;2023-09-19T13:16:15;100472.91;;;39.31;18.99
18918;BME280;9591;52.742;13.650;2023-09-19T13:19:06;100474.41;;;39.11;19.00
18918;BME280;9591;52.742;13.650;2023-09-19T13:21:53;100469.34;;;38.73;18.88
18918;BME280;9591;52.742;13.650;2023-09-19T13:24:43;100477.09;;;38.41;19.51
18918;BME280;9591;52.742;13.650;2023-09-19T13:27:29;100473.75;;;38.38;19.36
18918;BME280;9591;52.742;13.650;2023-09-19T13:30:17;100473.13;;;39.42;19.57
18918;BME280;9591;52.742;13.650;2023-09-19T13:33:05;100470.56;;;38.77;19.82
18918;BME280;9591;52.742;13.650;2023-09-19T13:35:53;100465.59;;;39.14;19.40
18918;BME280;9591;52.742;13.650;2023-09-19T13:38:41;100466.59;;;38.61;19.17
18918;BME280;9591;52.742;13.650;2023-09-19T13:41:34;100469.88;;;37.86;20.12
18918;BME280;9591;52.742;13.650;2023-09-19T13:44:22;100472.13;;;38.96;19.25
18918;BME280;9591;52.742;13.650;2023-09-19T13:47:09;100465.16;;;38.93;19.24
18918;BME280;9591;52.742;13.650;2023-09-19T13:49:59;100468.38;;;37.17;19.12
18918;BME280;9591;52.742;13.650;2023-09-19T13:52:46;100464.97;;;36.72;20.38
18918;BME280;9591;52.742;13.650;2023-09-19T13:55:33;100462.78;;;38.32;19.75
18918;BME280;9591;52.742;13.650;2023-09-19T13:58:25;100470.28;;;39.77;18.52
18918;BME280;9591;52.742;13.650;2023-09-19T14:01:12;100472.97;;;38.96;19.71
18918;BME280;9591;52.742;13.650;2023-09-19T14:03:59;100468.63;;;38.12;19.50
18918;BME280;9591;52.742;13.650;2023-09-19T14:06:46;100471.38;;;39.00;19.43
18918;BME280;9591;52.742;13.650;2023-09-19T14:09:33;100466.75;;;39.41;18.60
18918;BME280;9591;52.742;13.650;2023-09-19T14:12:20;100469.44;;;40.21;17.98
18918;BME280;9591;52.742;13.650;2023-09-19T14:15:09;100472.72;;;38.75;19.47
18918;BME280;9591;52.742;13.650;2023-09-19T14:17:57;100461.31;;;38.71;20.37
18918;BME280;9591;52.742;13.650;2023-09-19T14:20:46;100464.38;;;39.21;19.17
18918;BME280;9591;52.742;13.650;2023-09-19T14:23:36;100450.34;;;39.63;18.90
18918;BME280;9591;52.742;13.650;2023-09-19T14:26:24;100462.50;;;39.90;19.31
18918;BME280;9591;52.742;13.650;2023-09-19T14:29:11;100459.16;;;40.50;19.19
18918;BME280;9591;52.742;13.650;2023-09-19T14:32:00;100455.97;;;40.42;18.56
18918;BME280;9591;52.742;13.650;2023-09-19T14:34:46;100455.19;;;39.84;20.11
18918;BME280;9591;52.742;13.650;2023-09-19T14:37:33;100457.09;;;40.29;19.10
18918;BME280;9591;52.742;13.650;2023-09-19T14:40:20;100450.03;;;39.76;18.72
18918;BME280;9591;52.742;13.650;2023-09-19T14:43:07;100451.84;;;39.99;19.38
18918;BME280;9591;52.742;13.650;2023-09-19T14:45:55;100456.97;;;39.90;19.09
18918;BME280;9591;52.742;13.650;2023-09-19T14:48:45;100448.72;;;39.27;19.40
18918;BME280;9591;52.742;13.650;2023-09-19T14:51:33;100458.19;;;39.43;19.56